createdAt,value
2022-11-29T00:01:07.890Z,25.60
2022-11-29T00:03:34.562Z,26.60
2022-11-29T00:06:06.247Z,28.00
2022-11-29T00:11:13.604Z,27.23
2022-11-29T00:13:40.604Z,27.43
2022-11-29T00:16:10.374Z,26.58
2022-11-29T00:18:37.416Z,27.77
2022-11-29T00:21:08.321Z,25.00
2022-11-29T00:23:35.524Z,22.98
2022-11-29T00:26:06.687Z,26.00
2022-11-29T00:28:34.463Z,24.38
2022-11-29T00:31:01.150Z,22.48
2022-11-29T00:33:27.699Z,24.17
2022-11-29T00:35:54.135Z,24.38
2022-11-29T00:38:20.599Z,24.30
2022-11-29T00:40:51.623Z,22.67
2022-11-29T00:43:18.079Z,23.92
2022-11-29T00:45:44.563Z,28.13
2022-11-29T00:48:11.055Z,24.77
2022-11-29T00:50:37.507Z,22.88
2022-11-29T00:53:03.974Z,24.25
2022-11-29T00:55:30.472Z,26.15
2022-11-29T00:57:56.969Z,20.58
2022-11-29T01:00:23.536Z,23.83
2022-11-29T01:02:50.024Z,18.30
2022-11-29T01:05:16.468Z,21.88
2022-11-29T01:07:43.047Z,18.27
2022-11-29T01:10:10.116Z,17.95
2022-11-29T01:12:37.850Z,16.40
2022-11-29T01:15:06.394Z,18.67
2022-11-29T01:17:35.696Z,17.20
2022-11-29T01:20:02.324Z,17.23
2022-11-29T01:22:28.822Z,19.88
2022-11-29T01:24:55.247Z,19.38
2022-11-29T01:27:21.732Z,16.52
2022-11-29T01:29:48.275Z,20.75
2022-11-29T01:32:14.745Z,18.73
2022-11-29T01:34:41.532Z,19.17
2022-11-29T01:37:08.406Z,19.92
2022-11-29T01:39:34.912Z,20.60
2022-11-29T01:42:02.202Z,18.92
2022-11-29T01:44:29.091Z,18.77
2022-11-29T01:46:57.034Z,19.85
2022-11-29T01:49:28.287Z,16.95
2022-11-29T01:52:00.707Z,16.23
2022-11-29T01:54:29.838Z,15.82
2022-11-29T01:56:56.392Z,14.77
2022-11-29T01:59:25.619Z,12.88
2022-11-29T02:01:52.731Z,14.25
2022-11-29T02:04:19.504Z,6.63
2022-11-29T02:06:46.329Z,12.80
2022-11-29T02:09:23.434Z,15.32
2022-11-29T02:12:07.488Z,9.90
2022-11-29T02:15:09.033Z,12.43
2022-11-29T02:17:58.727Z,13.82
2022-11-29T02:20:59.367Z,13.65
2022-11-29T02:24:00.435Z,6.65
2022-11-29T02:27:02.466Z,4.57
2022-11-29T02:29:55.709Z,6.38
2022-11-29T02:32:48.437Z,5.15
2022-11-29T02:35:23.698Z,3.05
2022-11-29T02:38:02.278Z,3.55
2022-11-29T02:40:48.304Z,3.47
2022-11-29T02:43:51.741Z,2.17
2022-11-29T02:46:48.762Z,2.60
2022-11-29T02:49:38.663Z,1.88
2022-11-29T02:52:11.740Z,3.63
2022-11-29T02:54:53.159Z,2.60
2022-11-29T02:57:25.877Z,1.63
2022-11-29T03:00:10.841Z,2.70
2022-11-29T03:02:45.621Z,2.25
2022-11-29T03:05:44.677Z,3.65
2022-11-29T03:08:15.306Z,2.53
2022-11-29T03:10:59.302Z,4.18
2022-11-29T03:14:03.636Z,3.63
2022-11-29T03:16:59.544Z,2.95
2022-11-29T03:19:47.014Z,2.45
2022-11-29T03:22:19.798Z,2.63
2022-11-29T03:24:56.044Z,3.15
2022-11-29T03:27:38.251Z,4.03
2022-11-29T03:30:09.510Z,3.35
2022-11-29T03:33:00.583Z,4.93
2022-11-29T03:35:48.238Z,4.37
2022-11-29T03:38:32.784Z,3.28
2022-11-29T03:41:12.934Z,3.97
2022-11-29T03:43:43.239Z,2.63
2022-11-29T03:46:18.933Z,3.50
2022-11-29T03:48:54.092Z,3.30
2022-11-29T03:51:31.187Z,3.75
2022-11-29T03:54:09.254Z,5.28
2022-11-29T03:56:39.419Z,3.45
2022-11-29T03:59:33.663Z,4.10
2022-11-29T04:02:21.592Z,4.75
2022-11-29T04:05:03.508Z,5.75
2022-11-29T04:10:40.094Z,4.07
2022-11-29T04:13:46.489Z,4.22
2022-11-29T04:16:18.763Z,4.18
2022-11-29T04:19:23.064Z,3.70
2022-11-29T04:22:19.206Z,4.78
2022-11-29T04:24:59.790Z,3.60
2022-11-29T04:27:43.161Z,5.20
2022-11-29T04:30:16.433Z,3.33
2022-11-29T04:33:01.619Z,3.75
2022-11-29T04:35:56.067Z,2.85
2022-11-29T04:38:34.687Z,3.97
2022-11-29T04:41:19.821Z,5.10
2022-11-29T04:44:13.547Z,4.60
2022-11-29T04:46:39.993Z,3.78
2022-11-29T04:49:49.007Z,3.65
2022-11-29T04:52:29.798Z,4.03
2022-11-29T04:55:23.720Z,4.85
2022-11-29T04:58:19.693Z,3.60
2022-11-29T05:00:52.088Z,2.80
2022-11-29T05:03:37.155Z,3.70
2022-11-29T05:06:15.828Z,3.38
2022-11-29T05:08:55.947Z,4.53
2022-11-29T05:11:35.132Z,4.07
2022-11-29T05:14:46.321Z,4.35
2022-11-29T05:17:35.338Z,6.37
2022-11-29T05:20:40.806Z,4.05
2022-11-29T05:23:44.582Z,4.85
2022-11-29T05:26:34.047Z,5.65
2022-11-29T05:29:10.603Z,4.30
2022-11-29T05:32:08.299Z,4.88
2022-11-29T05:34:35.236Z,6.00
2022-11-29T05:37:28.512Z,5.40
2022-11-29T05:40:13.250Z,6.53
2022-11-29T05:42:51.893Z,4.72
2022-11-29T05:45:27.109Z,5.38
2022-11-29T05:48:06.836Z,4.40
2022-11-29T05:50:43.162Z,5.10
2022-11-29T05:53:24.800Z,4.18
2022-11-29T05:56:39.404Z,5.60
2022-11-29T05:59:12.367Z,7.35
2022-11-29T06:01:53.799Z,4.95
2022-11-29T06:04:31.646Z,4.95
2022-11-29T06:07:03.316Z,4.15
2022-11-29T06:12:12.874Z,4.63
2022-11-29T06:15:32.815Z,4.50
2022-11-29T06:18:19.384Z,6.13
2022-11-29T06:21:04.476Z,4.60
2022-11-29T06:23:45.569Z,4.38
2022-11-29T06:26:25.136Z,4.63
2022-11-29T06:29:06.571Z,4.70
2022-11-29T06:31:46.374Z,4.60
2022-11-29T06:34:43.577Z,5.15
2022-11-29T06:37:22.964Z,5.50
2022-11-29T06:39:49.816Z,4.70
2022-11-29T06:42:16.473Z,4.07
2022-11-29T06:44:43.687Z,6.03
2022-11-29T06:47:22.791Z,6.03
2022-11-29T06:49:53.675Z,7.20
2022-11-29T06:52:51.729Z,5.47
2022-11-29T06:55:32.067Z,5.57
2022-11-29T06:58:03.583Z,6.15
2022-11-29T07:00:57.773Z,5.68
2022-11-29T07:03:42.931Z,5.30
2022-11-29T07:06:25.975Z,6.13
2022-11-29T07:08:58.732Z,6.20
2022-11-29T07:11:26.024Z,5.95
2022-11-29T07:13:52.773Z,5.43
2022-11-29T07:16:41.586Z,4.15
2022-11-29T07:19:45.916Z,5.78
2022-11-29T07:22:37.920Z,5.32
2022-11-29T07:27:46.035Z,5.07
2022-11-29T07:30:31.380Z,4.00
2022-11-29T07:33:00.487Z,6.18
2022-11-29T07:35:54.216Z,5.00
2022-11-29T07:38:44.774Z,4.85
2022-11-29T07:41:20.964Z,5.22
2022-11-29T07:44:03.935Z,5.78
2022-11-29T07:46:30.447Z,5.28
2022-11-29T07:48:57.001Z,8.93
2022-11-29T07:51:23.510Z,7.22
2022-11-29T07:53:49.950Z,8.77
2022-11-29T07:56:16.441Z,6.68
2022-11-29T07:58:43.782Z,6.95
2022-11-29T08:01:10.463Z,7.60
2022-11-29T08:03:37.008Z,9.85
2022-11-29T08:06:03.940Z,10.95
2022-11-29T08:08:30.465Z,10.70
2022-11-29T08:10:56.978Z,9.55
2022-11-29T08:13:23.542Z,9.25
2022-11-29T08:15:50.024Z,9.88
2022-11-29T08:18:16.710Z,8.50
2022-11-29T08:20:43.830Z,8.63
2022-11-29T08:23:14.410Z,10.23
2022-11-29T08:25:41.289Z,8.95
2022-11-29T08:28:08.215Z,9.52
2022-11-29T08:30:34.748Z,9.85
2022-11-29T08:33:01.383Z,10.13
2022-11-29T08:35:27.866Z,10.15
2022-11-29T08:37:54.490Z,7.93
2022-11-29T08:40:21.254Z,8.75
2022-11-29T08:42:47.670Z,9.05
2022-11-29T08:45:14.219Z,9.50
2022-11-29T08:47:42.424Z,8.50
2022-11-29T08:50:17.893Z,7.40
2022-11-29T08:53:05.773Z,9.60
2022-11-29T08:55:35.024Z,8.52
2022-11-29T08:58:13.685Z,7.88
2022-11-29T09:00:42.421Z,7.90
2022-11-29T09:03:27.223Z,8.00
2022-11-29T09:05:54.033Z,7.88
2022-11-29T09:08:21.007Z,10.27
2022-11-29T09:10:47.552Z,11.02
2022-11-29T09:13:14.630Z,9.18
2022-11-29T09:15:43.291Z,9.00
2022-11-29T09:18:09.864Z,9.45
2022-11-29T09:20:36.439Z,11.82
2022-11-29T09:23:02.972Z,9.05
2022-11-29T09:25:29.480Z,10.52
2022-11-29T09:27:58.164Z,9.75
2022-11-29T09:30:24.993Z,12.93
2022-11-29T09:32:51.523Z,10.25
2022-11-29T09:35:18.090Z,12.77
2022-11-29T09:37:44.614Z,10.60
2022-11-29T09:40:25.429Z,9.93
2022-11-29T09:43:16.592Z,10.55
2022-11-29T09:45:48.823Z,10.75
2022-11-29T09:48:25.117Z,13.07
2022-11-29T09:51:10.218Z,13.20
2022-11-29T09:53:48.740Z,15.77
2022-11-29T09:56:27.259Z,11.32
2022-11-29T09:59:01.845Z,15.18
2022-11-29T10:01:34.189Z,12.10
2022-11-29T10:04:05.318Z,17.25
2022-11-29T10:06:40.487Z,15.15
2022-11-29T10:09:48.483Z,14.77
2022-11-29T10:12:34.283Z,12.65
2022-11-29T10:15:10.480Z,12.98
2022-11-29T10:17:47.715Z,15.30
2022-11-29T10:20:20.538Z,13.75
2022-11-29T10:22:54.458Z,14.75
2022-11-29T10:25:29.551Z,13.73
2022-11-29T10:27:56.191Z,15.93
2022-11-29T10:30:22.718Z,13.48
2022-11-29T10:32:56.358Z,15.77
2022-11-29T10:35:23.315Z,13.63
2022-11-29T10:38:22.763Z,12.48
2022-11-29T10:43:10.662Z,13.02
2022-11-29T10:45:45.946Z,15.88
2022-11-29T10:48:21.210Z,14.65
2022-11-29T10:50:50.129Z,17.80
2022-11-29T10:53:27.815Z,15.23
2022-11-29T10:56:01.241Z,27.90
2022-11-29T10:58:31.406Z,17.05
2022-11-29T11:01:01.070Z,23.30
2022-11-29T11:03:29.284Z,22.27
2022-11-29T11:06:09.179Z,13.18
2022-11-29T11:08:37.451Z,15.20
2022-11-29T11:11:07.628Z,18.88
2022-11-29T11:13:36.489Z,20.77
2022-11-29T11:16:20.338Z,14.40
2022-11-29T11:18:48.014Z,12.60
2022-11-29T11:21:18.310Z,11.43
2022-11-29T11:24:02.920Z,14.60
2022-11-29T11:26:42.642Z,13.43
2022-11-29T11:29:18.639Z,13.18
2022-11-29T11:31:55.970Z,15.63
2022-11-29T11:34:37.148Z,11.18
2022-11-29T11:37:16.135Z,12.70
2022-11-29T11:39:44.396Z,11.13
2022-11-29T11:42:37.844Z,12.07
2022-11-29T11:45:22.053Z,12.32
2022-11-29T11:47:53.907Z,12.43
2022-11-29T11:50:42.291Z,13.32
2022-11-29T11:53:24.806Z,11.25
2022-11-29T11:56:10.346Z,12.40
2022-11-29T11:58:49.666Z,13.10
2022-11-29T12:01:39.116Z,14.23
2022-11-29T12:04:17.320Z,10.77
2022-11-29T12:06:46.455Z,12.88
2022-11-29T12:09:27.937Z,9.10
2022-11-29T12:12:00.235Z,12.35
2022-11-29T12:14:37.263Z,12.77
2022-11-29T12:17:20.393Z,12.18
2022-11-29T12:20:09.273Z,11.43
2022-11-29T12:22:47.950Z,12.23
2022-11-29T12:25:20.920Z,11.45
2022-11-29T12:27:49.873Z,11.75
2022-11-29T12:30:18.191Z,12.50
2022-11-29T12:33:22.972Z,13.05
2022-11-29T12:36:09.968Z,11.80
2022-11-29T12:38:57.608Z,11.00
2022-11-29T12:41:39.282Z,10.52
2022-11-29T12:44:22.356Z,11.90
2022-11-29T12:47:28.119Z,11.57
2022-11-29T12:50:11.690Z,9.70
2022-11-29T12:52:53.487Z,9.32
2022-11-29T12:55:33.996Z,8.13
2022-11-29T12:58:12.943Z,9.52
2022-11-29T13:00:57.748Z,32.78
2022-11-29T13:03:32.476Z,9.30
2022-11-29T13:06:07.941Z,12.20
2022-11-29T13:09:00.252Z,8.10
2022-11-29T13:11:35.007Z,7.93
2022-11-29T13:14:40.896Z,7.60
2022-11-29T13:17:01.431Z,7.43
2022-11-29T13:19:42.694Z,8.18
2022-11-29T13:22:23.767Z,7.88
2022-11-29T13:25:04.190Z,8.40
2022-11-29T13:27:36.680Z,9.27
2022-11-29T13:30:04.443Z,8.90
2022-11-29T13:32:45.200Z,9.60
2022-11-29T13:35:30.139Z,9.00
2022-11-29T13:38:24.665Z,9.13
2022-11-29T13:41:31.877Z,8.55
2022-11-29T13:44:14.573Z,10.25
2022-11-29T13:46:58.673Z,9.55
2022-11-29T13:50:02.663Z,9.88
2022-11-29T13:52:48.479Z,8.77
2022-11-29T13:55:29.395Z,10.18
2022-11-29T14:00:45.520Z,9.02
2022-11-29T14:03:33.047Z,10.63
2022-11-29T14:06:02.292Z,9.90
2022-11-29T14:09:16.787Z,9.95
2022-11-29T14:11:51.063Z,10.63
2022-11-29T14:15:01.169Z,9.63
2022-11-29T14:17:49.403Z,12.27
2022-11-29T14:20:38.712Z,14.30
2022-11-29T14:23:05.163Z,10.27
2022-11-29T14:25:50.989Z,11.88
2022-11-29T14:28:21.527Z,9.50
2022-11-29T14:30:49.050Z,8.60
2022-11-29T14:33:50.877Z,9.00
2022-11-29T14:36:26.423Z,11.52
2022-11-29T14:38:58.550Z,9.75
2022-11-29T14:41:55.084Z,10.45
2022-11-29T14:44:30.793Z,8.48
2022-11-29T14:47:03.564Z,10.52
2022-11-29T14:49:31.862Z,10.93
2022-11-29T14:52:29.258Z,9.70
2022-11-29T14:54:58.846Z,9.85
2022-11-29T14:57:47.061Z,10.93
2022-11-29T15:00:48.891Z,14.85
2022-11-29T15:03:31.984Z,10.25
2022-11-29T15:05:59.955Z,11.95
2022-11-29T15:08:26.601Z,12.05
2022-11-29T15:10:57.766Z,14.13
2022-11-29T15:13:36.890Z,15.07
2022-11-29T15:16:19.296Z,13.27
2022-11-29T15:19:07.668Z,23.23
2022-11-29T15:22:03.706Z,13.73
2022-11-29T15:24:30.172Z,12.93
2022-11-29T15:26:59.573Z,12.48
2022-11-29T15:29:27.692Z,12.00
2022-11-29T15:31:57.375Z,14.43
2022-11-29T15:34:26.854Z,14.57
2022-11-29T15:36:53.408Z,16.60
2022-11-29T15:39:37.051Z,16.73
2022-11-29T15:42:12.292Z,16.45
2022-11-29T15:44:46.104Z,17.55
2022-11-29T15:47:25.321Z,15.07
2022-11-29T15:49:53.565Z,17.55
2022-11-29T15:52:36.268Z,17.98
2022-11-29T15:55:11.680Z,23.45
2022-11-29T15:57:43.103Z,22.05
2022-11-29T16:00:20.087Z,23.08
2022-11-29T16:02:52.409Z,18.80
2022-11-29T16:05:22.396Z,21.90
2022-11-29T16:07:53.498Z,21.75
2022-11-29T16:10:23.193Z,22.63
2022-11-29T16:12:54.441Z,26.38
2022-11-29T16:15:30.450Z,23.80
2022-11-29T16:18:05.355Z,26.65
2022-11-29T16:20:32.188Z,19.55
2022-11-29T16:23:07.654Z,16.60
2022-11-29T16:25:37.646Z,18.50
2022-11-29T16:28:05.896Z,16.17
2022-11-29T16:30:32.739Z,23.38
2022-11-29T16:33:03.321Z,22.45
2022-11-29T16:35:33.850Z,19.88
2022-11-29T16:38:04.326Z,18.23
2022-11-29T16:40:33.328Z,19.52
2022-11-29T16:43:02.859Z,23.83
2022-11-29T16:45:38.299Z,21.48
2022-11-29T16:48:28.812Z,19.15
2022-11-29T16:51:13.661Z,16.02
2022-11-29T16:53:47.611Z,15.27
2022-11-29T16:56:16.522Z,16.88
2022-11-29T16:59:20.891Z,18.50
2022-11-29T17:01:31.805Z,16.23
2022-11-29T17:03:59.971Z,17.73
2022-11-29T17:06:28.584Z,17.13
2022-11-29T17:08:57.520Z,21.05
2022-11-29T17:11:24.657Z,19.00
2022-11-29T17:13:51.803Z,20.52
2022-11-29T17:16:21.275Z,23.30
2022-11-29T17:18:48.088Z,22.65
2022-11-29T17:21:20.128Z,19.75
2022-11-29T17:23:46.839Z,18.95
2022-11-29T17:26:13.476Z,20.38
2022-11-29T17:28:40.699Z,18.33
2022-11-29T17:31:11.743Z,18.40
2022-11-29T17:33:38.498Z,19.25
2022-11-29T17:36:07.359Z,19.25
2022-11-29T17:38:34.615Z,20.13
2022-11-29T17:41:29.295Z,20.95
2022-11-29T17:43:57.000Z,23.92
2022-11-29T17:46:28.985Z,21.70
2022-11-29T17:48:55.926Z,24.60
2022-11-29T17:51:54.562Z,22.38
2022-11-29T17:54:11.455Z,22.27
2022-11-29T17:56:38.018Z,21.98
2022-11-29T17:59:05.300Z,19.88
2022-11-29T18:01:34.662Z,29.63
2022-11-29T18:04:03.383Z,25.73
2022-11-29T18:06:40.643Z,23.60
2022-11-29T18:09:10.107Z,25.38
2022-11-29T18:11:47.675Z,28.30
2022-11-29T18:14:20.828Z,37.17
2022-11-29T18:16:47.554Z,53.40
2022-11-29T18:19:17.504Z,30.75
2022-11-29T18:21:44.276Z,30.45
2022-11-29T18:24:11.285Z,27.63
2022-11-29T18:26:38.679Z,26.58
2022-11-29T18:29:06.771Z,29.38
2022-11-29T18:31:35.609Z,29.70
2022-11-29T18:34:06.833Z,29.00
2022-11-29T18:36:36.510Z,25.23
2022-11-29T18:39:07.176Z,25.77
2022-11-29T18:41:33.676Z,24.80
2022-11-29T18:44:03.451Z,29.35
2022-11-29T18:46:35.517Z,28.30
2022-11-29T18:49:05.358Z,26.17
2022-11-29T18:51:33.175Z,22.48
2022-11-29T18:54:00.543Z,26.30
2022-11-29T18:56:29.792Z,27.98
2022-11-29T18:58:59.384Z,25.13
2022-11-29T19:01:31.603Z,26.95
2022-11-29T19:03:59.871Z,27.02
2022-11-29T19:06:38.591Z,29.52
2022-11-29T19:09:07.375Z,29.45
2022-11-29T19:11:34.905Z,27.05
2022-11-29T19:14:10.966Z,57.60
2022-11-29T19:16:39.954Z,64.05
2022-11-29T19:19:06.853Z,31.17
2022-11-29T19:21:34.524Z,35.67
2022-11-29T19:24:07.565Z,29.25
2022-11-29T19:26:34.442Z,35.15
2022-11-29T19:29:01.309Z,34.30
2022-11-29T19:31:28.980Z,31.40
2022-11-29T19:33:56.951Z,46.97
2022-11-29T19:36:26.152Z,36.80
2022-11-29T19:38:54.145Z,23.83
2022-11-29T19:41:26.555Z,22.73
2022-11-29T19:43:53.894Z,25.38
2022-11-29T19:46:31.988Z,25.83
2022-11-29T19:48:59.948Z,21.67
2022-11-29T19:51:28.399Z,24.00
2022-11-29T19:53:57.847Z,19.48
2022-11-29T19:56:24.533Z,15.93
2022-11-29T19:58:51.968Z,17.45
2022-11-29T20:01:22.745Z,18.08
2022-11-29T20:03:49.926Z,17.60
2022-11-29T20:06:16.993Z,15.55
2022-11-29T20:08:44.051Z,18.15
2022-11-29T20:11:13.905Z,15.85
2022-11-29T20:13:43.032Z,18.35
2022-11-29T20:16:11.884Z,17.08
2022-11-29T20:18:43.549Z,19.30
2022-11-29T20:21:19.839Z,34.03
2022-11-29T20:23:46.483Z,30.92
2022-11-29T20:26:16.857Z,29.00
2022-11-29T20:28:44.033Z,26.60
2022-11-29T20:31:13.646Z,22.63
2022-11-29T20:33:42.342Z,21.50
2022-11-29T20:36:36.395Z,23.65
2022-11-29T20:39:36.003Z,20.30
2022-11-29T20:42:34.530Z,23.42
2022-11-29T20:45:03.951Z,21.35
2022-11-29T20:47:44.969Z,27.77
2022-11-29T20:50:23.304Z,20.83
2022-11-29T20:52:59.624Z,22.15
2022-11-29T20:55:26.312Z,19.63
2022-11-29T20:57:53.251Z,21.83
2022-11-29T21:00:20.226Z,29.52
2022-11-29T21:02:46.863Z,20.67
2022-11-29T21:05:13.398Z,19.83
2022-11-29T21:07:39.926Z,19.67
2022-11-29T21:10:07.173Z,20.75
2022-11-29T21:12:34.116Z,21.42
2022-11-29T21:15:00.918Z,17.75
2022-11-29T21:17:33.196Z,20.15
2022-11-29T21:20:01.090Z,21.63
2022-11-29T21:22:40.815Z,19.27
2022-11-29T21:25:26.969Z,17.65
2022-11-29T21:27:55.083Z,17.65
2022-11-29T21:30:23.825Z,18.27
2022-11-29T21:32:51.201Z,18.70
2022-11-29T21:35:18.007Z,20.80
2022-11-29T21:37:45.563Z,16.92
2022-11-29T21:40:15.643Z,17.50
2022-11-29T21:42:42.253Z,17.98
2022-11-29T21:45:14.811Z,17.02
2022-11-29T21:47:42.863Z,17.70
2022-11-29T21:50:10.313Z,18.55
2022-11-29T21:52:36.722Z,17.50
2022-11-29T21:55:03.763Z,17.50
2022-11-29T21:57:30.304Z,15.57
2022-11-29T21:59:56.788Z,17.67
2022-11-29T22:02:23.581Z,18.83
2022-11-29T22:04:50.177Z,18.95
2022-11-29T22:07:16.694Z,22.02
2022-11-29T22:09:43.207Z,19.15
2022-11-29T22:12:32.294Z,21.08
2022-11-29T22:14:56.141Z,23.85
2022-11-29T22:17:22.629Z,20.83
2022-11-29T22:19:49.119Z,20.85
2022-11-29T22:22:15.600Z,23.92
2022-11-29T22:24:42.143Z,22.88
2022-11-29T22:27:08.703Z,22.98
2022-11-29T22:29:35.138Z,28.17
2022-11-29T22:32:02.192Z,26.10
2022-11-29T22:34:28.688Z,26.08
2022-11-29T22:36:56.033Z,24.23
2022-11-29T22:39:22.704Z,27.30
2022-11-29T22:41:54.194Z,26.20
2022-11-29T22:44:22.163Z,24.73
2022-11-29T22:46:48.699Z,23.70
2022-11-29T22:49:15.309Z,24.92
2022-11-29T22:51:41.782Z,23.92
2022-11-29T22:54:10.344Z,24.38
2022-11-29T22:56:39.344Z,20.15
2022-11-29T22:59:06.168Z,24.67
2022-11-29T23:01:37.651Z,24.02
2022-11-29T23:04:07.154Z,24.55
2022-11-29T23:06:36.063Z,28.48
2022-11-29T23:09:17.143Z,27.42
2022-11-29T23:11:45.564Z,24.05
2022-11-29T23:14:12.528Z,23.15
2022-11-29T23:16:39.150Z,24.88
2022-11-29T23:19:05.816Z,23.67
2022-11-29T23:21:35.306Z,26.35
2022-11-29T23:24:02.483Z,20.92
2022-11-29T23:26:40.639Z,25.10
2022-11-29T23:29:10.815Z,25.48
2022-11-29T23:31:37.840Z,27.42
2022-11-29T23:34:05.296Z,24.33
2022-11-29T23:36:32.054Z,27.55
2022-11-29T23:38:58.554Z,30.70
2022-11-29T23:41:25.133Z,30.40
2022-11-29T23:43:51.651Z,35.00
2022-11-29T23:46:23.121Z,32.58
2022-11-29T23:48:50.349Z,26.20
2022-11-29T23:51:18.175Z,29.17
2022-11-29T23:53:46.591Z,27.40
2022-11-29T23:56:15.982Z,26.83
2022-11-29T23:58:44.061Z,27.42
